Time;durP1;ratioP1;P1;durP2;ratioP2;P2;SDS_P1;SDS_P2;PMS_P1;PMS_P2;Temp;Humidity;BMP_temperature;BMP_pressure;BME280_temperature;BME280_humidity;BME280_pressure;Samples;Min_cycle;Max_cycle;Signal;HPM_P1;HPM_P2
2022/04/07 00:01:58;;;;;;;7.78;6.30;;;;;;;9.38;85.18;98135.00;5037583;28;20413;-82
2022/04/07 00:04:26;;;;;;;6.55;5.10;;;;;;;9.32;84.23;98140.03;5038980;28;20054;-82
2022/04/07 00:06:53;;;;;;;4.97;3.72;;;;;;;9.33;84.03;98130.53;5031782;28;20048;-83
2022/04/07 00:09:21;;;;;;;4.72;4.18;;;;;;;9.36;83.75;98140.91;5038221;28;20069;-83
2022/04/07 00:11:49;;;;;;;5.07;3.92;;;;;;;9.39;83.34;98136.63;5034035;28;20512;-82
2022/04/07 00:14:17;;;;;;;7.97;5.72;;;;;;;9.39;84.29;98150.50;5033386;28;20049;-82
2022/04/07 00:16:45;;;;;;;5.13;4.63;;;;;;;9.46;83.72;98143.13;5036609;28;20510;-82
2022/04/07 00:19:12;;;;;;;6.38;5.50;;;;;;;9.42;85.04;98150.56;5039348;28;20523;-81
2022/04/07 00:21:46;;;;;;;6.60;5.63;;;;;;;9.39;85.81;98154.09;5033142;28;20407;-82
2022/04/07 00:24:13;;;;;;;7.32;6.43;;;;;;;9.27;86.87;98132.00;5028073;28;20057;-83
2022/04/07 00:26:41;;;;;;;10.60;6.00;;;;;;;9.22;86.93;98118.38;5037132;28;20053;-82
2022/04/07 00:29:09;;;;;;;4.97;4.22;;;;;;;9.24;87.70;98118.81;5038095;28;20053;-81
2022/04/07 00:31:40;;;;;;;8.63;3.20;;;;;;;9.21;83.38;98103.69;5037925;28;20065;-81
2022/04/07 00:34:07;;;;;;;4.88;3.25;;;;;;;9.19;84.43;98114.34;5037449;28;20061;-81
2022/04/07 00:36:34;;;;;;;3.20;2.33;;;;;;;9.20;83.86;98118.75;5037916;28;20068;-82
2022/04/07 00:39:02;;;;;;;3.90;2.70;;;;;;;9.18;83.81;98112.75;5038538;28;20045;-81
2022/04/07 00:41:29;;;;;;;3.72;2.47;;;;;;;9.16;83.82;98090.09;5035194;28;20061;-82
2022/04/07 00:43:57;;;;;;;3.65;2.80;;;;;;;8.99;84.62;98109.91;5037949;28;20049;-82
2022/04/07 00:46:25;;;;;;;4.45;2.40;;;;;;;9.10;85.68;98083.22;5037905;28;20064;-82
2022/04/07 00:48:52;;;;;;;3.13;1.95;;;;;;;9.03;84.21;98083.03;5029546;28;20068;-82
2022/04/07 00:51:20;;;;;;;3.05;1.90;;;;;;;8.99;84.15;98071.06;5037024;28;20409;-82
2022/04/07 00:53:47;;;;;;;3.22;1.98;;;;;;;8.94;84.73;98067.41;5037450;28;20041;-81
2022/04/07 00:56:15;;;;;;;5.10;2.10;;;;;;;8.91;82.53;98065.34;5035572;28;20065;-81
2022/04/07 00:58:45;;;;;;;3.13;2.15;;;;;;;8.99;82.68;98059.94;5036448;28;20060;-81
2022/04/07 01:01:13;;;;;;;3.70;2.03;;;;;;;8.99;82.07;98057.16;5031710;28;20049;-81
2022/04/07 01:03:42;;;;;;;3.10;2.28;;;;;;;8.98;81.12;98048.03;5018264;28;20061;-81
2022/04/07 01:06:09;;;;;;;2.55;2.22;;;;;;;9.02;80.61;98043.38;5025954;28;20053;-82
2022/04/07 01:08:37;;;;;;;3.35;2.58;;;;;;;9.09;80.28;98037.16;5035261;28;20056;-82
2022/04/07 01:11:04;;;;;;;3.85;2.90;;;;;;;9.12;80.58;98011.47;5031391;28;20053;-81
2022/04/07 01:13:55;;;;;;;3.15;2.85;;;;;;;9.07;80.29;98022.84;5033454;28;20060;-81
2022/04/07 01:16:30;;;;;;;4.20;3.13;;;;;;;9.16;78.71;98020.66;5019390;28;20056;-81
2022/04/07 01:19:01;;;;;;;3.25;2.72;;;;;;;9.21;79.62;98006.47;5037527;28;20045;-82
2022/04/07 01:21:30;;;;;;;3.53;2.70;;;;;;;9.21;79.16;98006.47;5028619;28;20046;-80
2022/04/07 01:24:03;;;;;;;3.83;3.15;;;;;;;9.30;79.19;98006.25;5028171;28;20104;-80
2022/04/07 01:26:38;;;;;;;4.18;2.65;;;;;;;9.30;77.51;97995.97;5036254;28;20112;-80
2022/04/07 01:29:06;;;;;;;4.53;2.67;;;;;;;9.37;77.53;97994.50;5034541;28;20050;-81
2022/04/07 01:31:34;;;;;;;3.28;2.63;;;;;;;9.43;77.53;97996.59;5026193;28;20060;-82
2022/04/07 01:34:02;;;;;;;4.78;2.33;;;;;;;9.41;77.10;98010.06;5031141;28;20041;-81
2022/04/07 01:36:32;;;;;;;5.97;2.95;;;;;;;9.45;77.40;97999.00;5037001;28;20068;-81
2022/04/07 01:39:01;;;;;;;3.40;2.35;;;;;;;9.53;76.47;97990.44;5035382;28;20045;-80
2022/04/07 01:41:28;;;;;;;4.03;2.83;;;;;;;9.58;76.44;97985.75;5035202;28;20049;-82
2022/04/07 01:43:59;;;;;;;2.58;1.88;;;;;;;9.57;74.98;97987.72;5033217;28;20044;-82
2022/04/07 01:46:27;;;;;;;4.65;2.60;;;;;;;9.65;75.53;97970.00;5033969;28;20053;-81
2022/04/07 01:48:55;;;;;;;4.35;2.13;;;;;;;9.70;74.82;97974.44;5036826;28;20060;-81
2022/04/07 01:51:25;;;;;;;2.92;2.03;;;;;;;9.73;75.57;97959.81;5035836;28;20068;-81
2022/04/07 01:53:52;;;;;;;5.32;1.90;;;;;;;9.79;74.77;97963.09;5032618;28;20414;-80
2022/04/07 01:56:21;;;;;;;4.60;1.75;;;;;;;9.85;74.24;97961.59;5026799;28;20065;-80
2022/04/07 01:58:49;;;;;;;4.53;1.90;;;;;;;9.79;73.58;97957.53;5028295;28;20422;-81
2022/04/07 02:01:23;;;;;;;5.00;2.28;;;;;;;9.85;74.29;97956.84;5036197;28;20064;-79
2022/04/07 02:03:50;;;;;;;3.00;1.50;;;;;;;9.89;73.33;97948.56;5032409;28;20445;-80
2022/04/07 02:06:19;;;;;;;3.45;1.63;;;;;;;9.87;73.39;97948.94;5026825;28;20096;-80
2022/04/07 02:08:47;;;;;;;3.55;1.77;;;;;;;9.93;73.92;97949.41;5034691;28;20505;-80
2022/04/07 02:11:16;;;;;;;5.03;1.50;;;;;;;9.94;72.39;97957.41;5031338;28;20065;-80
2022/04/07 02:13:44;;;;;;;3.35;1.50;;;;;;;9.93;72.17;97941.06;5030634;28;20060;-79
2022/04/07 02:16:12;;;;;;;2.47;1.27;;;;;;;9.88;72.40;97936.63;5035727;28;20045;-80
2022/04/07 02:18:40;;;;;;;2.53;1.42;;;;;;;9.88;72.18;97933.06;5035570;28;20045;-79
2022/04/07 02:21:09;;;;;;;3.47;1.40;;;;;;;10.01;72.04;97953.91;5035808;28;20056;-80
2022/04/07 02:23:42;;;;;;;3.45;1.65;;;;;;;10.09;73.29;97935.38;5034234;28;20397;-81
2022/04/07 02:26:11;;;;;;;2.03;1.30;;;;;;;10.04;72.82;97936.50;5034279;28;20490;-80
2022/04/07 02:28:38;;;;;;;4.28;1.70;;;;;;;10.10;72.53;97926.66;5033497;28;20068;-81
2022/04/07 02:31:05;;;;;;;2.78;1.65;;;;;;;10.18;73.41;97935.91;5034513;28;20064;-79
2022/04/07 02:33:34;;;;;;;2.88;1.52;;;;;;;10.23;71.72;97940.38;5032846;28;20080;-80
2022/04/07 02:36:03;;;;;;;4.45;2.00;;;;;;;10.20;71.65;97927.19;5024561;28;20405;-80
2022/04/07 02:38:30;;;;;;;3.75;1.73;;;;;;;10.20;73.70;97918.84;5026257;28;20046;-80
2022/04/07 02:40:58;;;;;;;2.20;1.33;;;;;;;10.22;74.71;97900.59;5029300;28;20088;-80
2022/04/07 02:43:25;;;;;;;4.55;1.88;;;;;;;10.08;74.92;97915.13;5034201;28;20049;-80
2022/04/07 02:45:52;;;;;;;3.10;1.33;;;;;;;10.14;74.79;97913.63;5033293;28;20398;-79
2022/04/07 02:48:20;;;;;;;3.15;1.58;;;;;;;10.10;75.71;97887.72;5034037;28;20056;-80
2022/04/07 02:50:47;;;;;;;4.60;1.38;;;;;;;10.02;76.91;97899.91;5024199;28;20072;-80
2022/04/07 02:53:16;;;;;;;3.50;1.58;;;;;;;9.92;76.56;97884.66;5035310;28;20386;-81
2022/04/07 02:55:43;;;;;;;2.65;1.55;;;;;;;9.93;75.87;97883.50;5023455;28;20060;-81
2022/04/07 02:58:11;;;;;;;3.10;1.70;;;;;;;9.94;75.39;97882.31;5031523;28;20053;-81
2022/04/07 03:00:39;;;;;;;3.63;1.35;;;;;;;9.95;75.37;97883.94;5032514;28;20045;-81
2022/04/07 03:03:06;;;;;;;2.20;1.30;;;;;;;9.84;76.58;97871.03;5022703;28;20081;-80
2022/04/07 03:05:33;;;;;;;3.83;1.58;;;;;;;9.87;76.39;97864.72;5036572;28;20045;-81
2022/04/07 03:08:01;;;;;;;2.70;1.55;;;;;;;9.93;75.23;97874.34;5024973;28;20052;-79
2022/04/07 03:10:32;;;;;;;3.47;1.70;;;;;;;9.92;75.29;97861.63;5032215;28;20061;-80
2022/04/07 03:12:59;;;;;;;2.35;1.38;;;;;;;9.88;76.24;97860.78;5037532;28;20052;-81
2022/04/07 03:15:27;;;;;;;2.80;1.50;;;;;;;9.93;76.26;97852.09;5029360;28;20053;-80
2022/04/07 03:17:54;;;;;;;4.72;1.67;;;;;;;9.87;76.01;97848.03;5025441;28;20418;-79
2022/04/07 03:20:21;;;;;;;4.03;1.55;;;;;;;9.88;75.67;97844.09;5022048;28;20053;-79
2022/04/07 03:22:48;;;;;;;2.05;1.35;;;;;;;9.88;75.15;97830.97;5020359;28;20390;-79
2022/04/07 03:25:16;;;;;;;5.95;1.52;;;;;;;9.84;75.66;97827.34;5025098;28;20041;-80
2022/04/07 03:27:47;;;;;;;4.13;1.65;;;;;;;9.88;76.31;97828.19;5029239;28;20061;-80
2022/04/07 03:30:14;;;;;;;2.40;1.30;;;;;;;9.91;76.10;97821.06;5032503;28;20064;-81
2022/04/07 03:32:41;;;;;;;4.25;1.60;;;;;;;9.87;76.83;97812.72;5030466;28;20049;-79
2022/04/07 03:35:09;;;;;;;2.85;1.73;;;;;;;9.87;75.81;97809.94;5034271;28;20049;-80
2022/04/07 03:37:36;;;;;;;5.65;2.08;;;;;;;9.89;76.06;97806.75;5029123;28;20497;-81
2022/04/07 03:40:04;;;;;;;3.42;1.65;;;;;;;9.93;76.32;97802.88;5032385;28;20046;-81
2022/04/07 03:42:31;;;;;;;5.15;1.40;;;;;;;10.01;77.47;97789.84;5028912;28;20088;-80
2022/04/07 03:45:00;;;;;;;5.03;1.40;;;;;;;9.99;76.01;97777.50;5032146;28;20050;-81
2022/04/07 03:47:28;;;;;;;3.60;1.75;;;;;;;9.99;77.00;97777.50;5032455;28;20045;-81
2022/04/07 03:49:55;;;;;;;3.83;1.50;;;;;;;10.01;73.69;97775.94;5018547;28;20058;-80
2022/04/07 03:52:22;;;;;;;3.25;1.50;;;;;;;9.94;73.41;97770.28;5020877;28;20410;-81
2022/04/07 03:54:50;;;;;;;2.67;1.30;;;;;;;9.96;73.90;97740.94;5028023;28;20058;-82
2022/04/07 03:57:17;;;;;;;2.78;1.38;;;;;;;10.06;73.87;97747.81;5020756;28;20050;-82
2022/04/07 03:59:44;;;;;;;5.45;1.40;;;;;;;10.07;71.41;97763.31;5033045;28;20356;-83
2022/04/07 04:02:13;;;;;;;3.78;1.45;;;;;;;10.08;72.33;97753.81;5034551;28;20050;-82
2022/04/07 04:04:41;;;;;;;4.40;1.60;;;;;;;10.06;70.79;97753.38;5034471;28;20072;-82
2022/04/07 04:07:08;;;;;;;2.72;1.55;;;;;;;10.22;70.81;97742.03;5029615;28;20057;-81
2022/04/07 07:22:01;;;;;;;2.10;1.33;;;;;;;9.92;82.67;97322.25;5039322;28;20053;-80
2022/04/07 07:53:16;;;;;;;3.97;1.30;;;;;;;9.55;85.56;97195.34;5041971;28;20076;-81
2022/04/07 07:59:20;;;;;;;3.00;1.70;;;;;;;9.36;91.84;97182.53;5036323;28;20045;-80
2022/04/07 08:02:26;;;;;;;2.33;1.10;;;;;;;9.35;89.39;97181.75;5038124;28;20058;-80
2022/04/07 08:05:14;;;;;;;3.63;1.90;;;;;;;9.38;89.17;97177.41;5039127;28;20065;-80
2022/04/07 08:08:19;;;;;;;10.68;1.60;;;;;;;9.22;90.86;97161.03;5033372;28;20061;-80
2022/04/07 08:11:29;;;;;;;2.45;1.20;;;;;;;9.33;89.37;97142.47;5040967;28;20061;-81
2022/04/07 08:14:18;;;;;;;2.97;1.20;;;;;;;9.31;92.54;97135.72;5021260;28;20108;-80
2022/04/07 08:17:22;;;;;;;3.05;1.55;;;;;;;9.37;89.93;97181.38;5032138;28;20080;-80
2022/04/07 08:20:25;;;;;;;3.45;1.27;;;;;;;9.39;90.07;97112.34;5015267;28;20065;-80
2022/04/07 08:26:11;;;;;;;2.95;1.30;;;;;;;9.61;90.27;97104.88;5016378;28;20060;-79
2022/04/07 08:32:13;;;;;;;3.28;1.13;;;;;;;9.32;90.68;97112.28;5014250;28;20060;-81
2022/04/07 08:38:43;;;;;;;4.90;1.67;;;;;;;8.91;98.69;97099.38;5014120;28;20061;-78
2022/04/07 08:45:21;;;;;;;4.00;1.30;;;;;;;8.98;98.13;97097.81;5034460;28;20064;-78
2022/04/07 08:51:54;;;;;;;2.58;1.20;;;;;;;9.48;96.08;97073.09;5021093;28;20061;-80
2022/04/07 08:58:37;;;;;;;1.85;1.08;;;;;;;9.70;91.48;97038.66;5013619;28;20061;-79
2022/04/07 09:01:37;;;;;;;5.70;1.00;;;;;;;9.73;91.41;97010.06;5010572;28;20068;-78
2022/04/07 09:18:06;;;;;;;;;;;;;;;9.14;100.00;97007.50;5022722;28;20053;-80
2022/04/07 09:21:15;;;;;;;5.00;1.30;;;;;;;9.28;100.00;96986.50;5045341;28;19932;-80
2022/04/07 09:34:45;;;;;;;1.63;0.82;;;;;;;9.93;95.94;96948.53;5040956;28;20062;-79
2022/04/07 09:38:25;;;;;;;;;;;;;;;;;;;;;
2022/04/07 09:55:52;;;;;;;3.70;3.03;;;;;;;10.28;100.00;96980.31;4950594;28;20063;-80
2022/04/07 10:43:46;;;;;;;4.55;2.53;;;;;;;8.73;100.00;97070.69;5007202;28;20060;-83
2022/04/07 10:54:01;;;;;;;2.35;1.50;;;;;;;9.41;100.00;97073.03;4993418;28;20080;-82
2022/04/07 11:06:00;;;;;;;3.28;1.13;;;;;;;10.87;100.00;97047.44;5147854;27;20525;-66
2022/04/07 11:08:30;;;;;;;2.95;1.35;;;;;;;11.02;99.79;97050.19;5126361;28;20043;-66
2022/04/07 11:10:57;;;;;;;;;;;;;;;11.31;100.00;97043.34;5127116;28;20506;-66
2022/04/07 11:13:43;;;;;;;2.70;1.20;;;;;;;11.42;100.00;97062.81;5128682;28;19926;-66
2022/04/07 11:16:19;;;;;;;1.50;0.88;;;;;;;11.32;93.84;97060.88;5123342;28;20051;-65
2022/04/07 11:19:01;;;;;;;2.25;0.90;;;;;;;11.58;89.95;97067.94;5109745;28;20483;-66
2022/04/07 11:21:43;;;;;;;2.10;0.90;;;;;;;11.63;88.85;97059.13;5122312;28;20063;-63
2022/04/07 11:24:17;;;;;;;1.45;0.90;;;;;;;12.07;88.17;97054.16;5119875;28;20047;-63
2022/04/07 11:26:44;;;;;;;3.58;1.80;;;;;;;13.02;88.58;97066.94;5121875;27;20048;-64
2022/04/07 11:29:13;;;;;;;2.13;1.23;;;;;;;13.93;88.61;97057.91;5117951;28;20055;-64
2022/04/07 11:31:42;;;;;;;1.70;1.10;;;;;;;14.54;80.22;97065.41;5126889;28;20047;-64
2022/04/07 11:34:45;;;;;;;2.67;1.20;;;;;;;15.20;68.83;97057.47;5128629;27;20062;-64
2022/04/07 11:37:15;;;;;;;2.28;1.25;;;;;;;16.32;72.07;97056.78;5128386;28;20043;-64
2022/04/07 11:39:45;;;;;;;2.83;1.50;;;;;;;17.61;76.90;97063.94;5125725;27;20392;-64
2022/04/07 11:42:14;;;;;;;1.52;0.95;;;;;;;18.24;62.62;97074.56;5128441;28;20442;-64
2022/04/07 11:44:42;;;;;;;2.53;1.20;;;;;;;19.39;62.92;97068.03;5127190;28;20043;-64
2022/04/07 11:47:22;;;;;;;1.80;1.08;;;;;;;19.76;54.58;97062.69;5126414;28;20059;-64
2022/04/07 11:49:49;;;;;;;2.50;1.20;;;;;;;20.29;54.01;97070.38;5128874;28;20441;-64
2022/04/07 11:52:23;;;;;;;1.30;1.10;;;;;;;20.45;51.29;97072.97;5127740;28;20052;-64
2022/04/07 11:54:53;;;;;;;1.80;1.20;;;;;;;20.55;47.68;97085.09;5111070;28;20051;-65
2022/04/07 11:57:23;;;;;;;2.03;1.30;;;;;;;20.32;49.32;97082.81;5099707;28;20051;-65
2022/04/07 11:59:50;;;;;;;2.42;1.85;;;;;;;20.86;56.08;97078.66;5097861;28;20056;-65
2022/04/07 12:02:21;;;;;;;1.42;1.10;;;;;;;21.08;47.15;97092.69;5102252;28;20048;-64
2022/04/07 12:04:55;;;;;;;1.95;1.30;;;;;;;21.09;41.34;97125.41;5095873;28;20048;-64
2022/04/07 12:07:26;;;;;;;2.17;1.10;;;;;;;20.98;41.37;97096.78;5094445;28;20047;-63
2022/04/07 12:09:56;;;;;;;2.05;1.25;;;;;;;20.48;46.03;97100.31;5097496;28;20052;-61
2022/04/07 12:12:25;;;;;;;1.65;0.80;;;;;;;19.72;47.85;97093.09;5096571;28;20052;-61
2022/04/07 12:14:53;;;;;;;1.55;1.30;;;;;;;20.42;44.20;97098.56;5087303;28;20056;-60
2022/04/07 12:17:22;;;;;;;1.52;0.60;;;;;;;19.80;47.45;97100.06;5078959;28;20048;-61
2022/04/07 12:19:50;;;;;;;2.38;1.30;;;;;;;19.94;45.07;97114.91;5086390;28;20052;-60
2022/04/07 12:22:20;;;;;;;2.22;0.70;;;;;;;20.36;46.39;97106.06;5093228;28;20059;-60
2022/04/07 12:25:02;;;;;;;3.00;0.80;;;;;;;19.80;41.47;97085.94;5088180;28;20056;-60
2022/04/07 12:27:31;;;;;;;3.25;0.90;;;;;;;19.05;45.47;97111.13;5078628;28;20044;-60
2022/04/07 12:29:59;;;;;;;1.73;0.73;;;;;;;18.67;45.28;97109.88;5078406;28;20412;-59
2022/04/07 12:32:27;;;;;;;3.42;1.52;;;;;;;18.39;42.72;97108.72;5080082;28;20511;-60
2022/04/07 12:34:56;;;;;;;1.73;1.30;;;;;;;18.60;41.64;97112.91;5082831;28;20471;-60
2022/04/07 12:37:30;;;;;;;2.63;1.10;;;;;;;19.36;46.49;97094.34;5084150;28;20497;-59
2022/04/07 12:39:58;;;;;;;2.85;1.10;;;;;;;20.16;47.69;97117.72;5074841;28;20055;-57
2022/04/07 12:42:27;;;;;;;2.95;1.48;;;;;;;19.82;39.43;97100.41;5082461;28;20393;-59
2022/04/07 12:45:05;;;;;;;2.83;1.30;;;;;;;19.97;39.54;97088.56;5090631;28;20048;-58
2022/04/07 12:47:33;;;;;;;3.50;1.33;;;;;;;20.21;44.01;97095.31;5073316;28;20053;-59
2022/04/07 12:50:03;;;;;;;2.47;1.13;;;;;;;20.62;43.05;97099.00;5078335;28;20059;-58
2022/04/07 12:52:38;;;;;;;2.65;1.30;;;;;;;20.71;33.06;97111.59;5073865;28;20063;-58
2022/04/07 12:55:10;;;;;;;2.15;0.80;;;;;;;19.34;37.87;97113.78;5074684;28;20516;-59
2022/04/07 12:57:40;;;;;;;2.55;0.90;;;;;;;19.15;42.23;97106.34;5080965;28;20053;-59
2022/04/07 13:00:10;;;;;;;3.40;0.90;;;;;;;18.62;37.06;97140.66;5075905;28;20453;-59
2022/04/07 13:02:48;;;;;;;3.40;0.90;;;;;;;17.96;38.92;97157.13;5074734;28;20052;-58
2022/04/07 13:05:21;;;;;;;3.95;1.25;;;;;;;17.30;41.56;97173.31;5088448;28;20059;-60
2022/04/07 13:07:48;;;;;;;3.88;1.48;;;;;;;16.51;45.68;97180.78;5073139;28;20044;-60
2022/04/07 13:10:16;;;;;;;4.13;1.30;;;;;;;15.85;49.70;97186.09;5081671;28;20518;-60
2022/04/07 13:12:46;;;;;;;3.15;1.42;;;;;;;15.15;51.55;97181.34;5079545;28;20063;-60
2022/04/07 13:15:14;;;;;;;3.97;1.50;;;;;;;14.61;51.55;97210.97;5091020;28;20052;-60
2022/04/07 13:17:42;;;;;;;5.90;1.88;;;;;;;14.03;53.13;97190.50;5091726;28;20407;-59
2022/04/07 13:20:10;;;;;;;8.13;2.00;;;;;;;13.72;54.95;97193.25;5082761;28;20056;-59
2022/04/07 13:22:38;;;;;;;3.70;1.83;;;;;;;13.89;58.22;97204.66;5086553;28;20051;-59
2022/04/07 13:25:06;;;;;;;5.85;1.90;;;;;;;13.73;55.37;97214.41;5081154;28;20053;-55
2022/04/07 13:27:33;;;;;;;3.83;1.60;;;;;;;13.54;54.17;97215.81;5074920;28;20049;-57
2022/04/07 13:30:03;;;;;;;6.40;2.15;;;;;;;13.52;57.44;97217.41;5089033;28;20523;-56
2022/04/07 13:32:30;;;;;;;4.03;1.52;;;;;;;13.39;56.10;97223.50;5080317;28;20299;-59
2022/04/07 13:34:58;;;;;;;4.72;1.73;;;;;;;13.31;57.47;97230.41;5086413;28;20060;-59
2022/04/07 13:37:25;;;;;;;4.95;1.80;;;;;;;13.15;55.83;97258.81;5084281;28;20064;-59
2022/04/07 13:39:53;;;;;;;5.05;1.77;;;;;;;12.87;58.01;97279.38;5074166;28;20059;-57
2022/04/07 13:42:21;;;;;;;4.88;1.60;;;;;;;12.28;59.35;97321.09;5084451;28;20071;-59
2022/04/07 13:44:48;;;;;;;4.53;1.40;;;;;;;12.08;61.06;97288.09;5076354;28;20492;-59
2022/04/07 13:47:17;;;;;;;3.70;1.40;;;;;;;12.09;63.25;97267.34;5077668;28;20055;-58
2022/04/07 13:49:44;;;;;;;3.45;1.30;;;;;;;12.34;58.53;97267.25;5077782;28;20072;-60
2022/04/07 13:52:12;;;;;;;3.03;1.33;;;;;;;12.87;58.19;97264.59;5074319;28;20056;-60
2022/04/07 13:54:39;;;;;;;3.28;1.48;;;;;;;13.38;58.01;97269.47;5077758;28;20056;-60
2022/04/07 13:57:07;;;;;;;3.22;1.25;;;;;;;13.87;57.57;97266.59;5084904;28;20051;-60
2022/04/07 13:59:36;;;;;;;2.50;1.33;;;;;;;14.14;55.56;97263.94;5081653;28;20048;-60
2022/04/07 14:02:05;;;;;;;3.80;1.52;;;;;;;14.51;56.79;97259.50;5087093;28;20059;-61
2022/04/07 14:04:33;;;;;;;4.97;1.30;;;;;;;14.78;53.56;97270.78;5078953;28;20394;-60
2022/04/07 14:07:01;;;;;;;4.70;1.90;;;;;;;15.05;56.22;97264.38;5085532;28;20047;-58
2022/04/07 14:09:29;;;;;;;5.05;1.85;;;;;;;15.12;50.76;97271.88;5086724;28;20488;-60
2022/04/07 14:11:57;;;;;;;4.95;1.80;;;;;;;15.46;52.54;97282.19;5083837;28;20068;-60
2022/04/07 14:14:25;;;;;;;4.93;2.15;;;;;;;15.69;51.27;97273.00;5071612;28;20059;-58
2022/04/07 14:16:53;;;;;;;8.88;2.10;;;;;;;15.86;48.58;97259.91;5072962;28;20052;-60
2022/04/07 14:19:20;;;;;;;5.85;2.30;;;;;;;15.73;52.84;97257.69;5073339;28;20059;-60
2022/04/07 14:21:49;;;;;;;5.00;1.63;;;;;;;15.72;50.76;97270.13;5082051;28;20098;-59
2022/04/07 14:24:16;;;;;;;6.55;1.90;;;;;;;15.85;52.24;97278.72;5087428;28;20056;-59
2022/04/07 14:26:43;;;;;;;5.70;2.03;;;;;;;15.63;47.65;97281.88;5075380;28;20044;-56
2022/04/07 14:29:11;;;;;;;5.93;1.70;;;;;;;15.47;47.33;97292.19;5071726;28;20436;-57
2022/04/07 14:31:38;;;;;;;5.72;1.85;;;;;;;15.23;48.77;97300.56;5073362;28;20060;-59
2022/04/07 14:34:06;;;;;;;9.40;2.17;;;;;;;14.86;51.37;97296.66;5075649;28;20048;-58
2022/04/07 14:36:34;;;;;;;5.82;1.80;;;;;;;14.34;46.61;97291.28;5088881;28;20044;-56
2022/04/07 14:39:04;;;;;;;4.53;1.80;;;;;;;14.46;46.04;97293.53;5084743;28;20443;-58
2022/04/07 14:41:33;;;;;;;4.50;2.20;;;;;;;14.78;45.79;97295.19;5075682;28;20048;-57
2022/04/07 14:44:00;;;;;;;7.20;2.13;;;;;;;14.77;47.55;97294.38;5082814;28;20412;-57
2022/04/07 14:46:28;;;;;;;7.30;1.73;;;;;;;14.75;47.25;97312.84;5075710;28;20048;-57
2022/04/07 14:48:55;;;;;;;6.40;1.67;;;;;;;14.29;44.99;97319.75;5086035;28;20048;-57
2022/04/07 14:51:22;;;;;;;5.70;1.40;;;;;;;13.92;44.40;97313.75;5086815;28;20052;-54
2022/04/07 14:53:50;;;;;;;6.88;1.80;;;;;;;13.70;46.24;97332.72;5090239;28;20051;-56
2022/04/07 14:56:19;;;;;;;6.97;1.58;;;;;;;13.44;44.38;97342.50;5073315;28;20059;-57
2022/04/07 14:58:48;;;;;;;6.88;2.30;;;;;;;13.17;48.74;97357.03;5073007;28;20064;-53
2022/04/07 15:01:16;;;;;;;;;;;;;;;12.82;51.19;97363.59;5073881;28;20143;-56
2022/04/07 15:03:43;;;;;;;7.40;2.10;;;;;;;12.57;51.05;97361.69;5071482;28;19927;-58
2022/04/07 15:06:14;;;;;;;7.97;2.70;;;;;;;12.68;51.43;97355.25;5074180;28;20045;-58
2022/04/07 15:08:41;;;;;;;5.20;2.00;;;;;;;12.84;51.75;97357.59;5071706;28;20518;-58
2022/04/07 15:11:09;;;;;;;7.03;2.30;;;;;;;12.56;52.60;97362.91;5079664;28;20063;-58
2022/04/07 15:13:38;;;;;;;7.97;2.50;;;;;;;12.38;51.97;97362.94;5089452;28;20051;-57
2022/04/07 15:16:06;;;;;;;7.63;1.90;;;;;;;12.22;51.11;97372.94;5078166;28;20055;-56
2022/04/07 15:18:33;;;;;;;6.70;1.73;;;;;;;12.07;50.35;97372.16;5071619;28;20052;-57
2022/04/07 15:21:01;;;;;;;6.53;1.98;;;;;;;12.09;48.40;97409.63;5080687;28;20060;-56
2022/04/07 15:23:28;;;;;;;6.18;1.55;;;;;;;11.61;50.72;97362.59;5077127;28;20054;-58
2022/04/07 15:25:55;;;;;;;6.85;1.85;;;;;;;11.61;52.01;97378.53;5077825;28;20063;-57
2022/04/07 15:28:23;;;;;;;4.90;1.90;;;;;;;10.93;55.67;97443.25;5088171;28;20056;-56
2022/04/07 15:30:51;;;;;;;7.13;2.15;;;;;;;11.07;58.11;97403.53;5074636;28;20056;-57
2022/04/07 15:33:19;;;;;;;3.85;1.27;;;;;;;11.04;55.01;97382.00;5079053;28;20063;-58
2022/04/07 15:35:46;;;;;;;6.05;2.10;;;;;;;11.12;54.68;97380.84;5078268;28;20049;-56
2022/04/07 15:38:14;;;;;;;7.35;2.25;;;;;;;11.12;54.80;97386.41;5078181;28;20479;-58
2022/04/07 15:40:41;;;;;;;3.85;1.33;;;;;;;11.02;54.52;97426.16;5083015;28;20055;-58
2022/04/07 15:43:10;;;;;;;4.28;1.67;;;;;;;11.08;53.51;97449.66;5078800;28;20048;-58
2022/04/07 15:45:38;;;;;;;6.35;1.30;;;;;;;10.79;56.17;97435.63;5074496;28;20044;-59
2022/04/07 15:48:07;;;;;;;4.93;1.30;;;;;;;10.60;56.53;97450.63;5072887;28;20438;-57
2022/04/07 15:50:34;;;;;;;3.50;1.10;;;;;;;10.41;56.27;97442.56;5077160;28;20053;-59
2022/04/07 15:53:02;;;;;;;3.85;1.42;;;;;;;10.16;58.77;97443.16;5079575;28;20441;-59
2022/04/07 15:55:31;;;;;;;3.13;1.08;;;;;;;9.96;58.45;97473.22;5081707;28;20044;-59
2022/04/07 15:57:58;;;;;;;5.13;1.45;;;;;;;9.86;61.11;97469.13;5077890;28;20060;-56
2022/04/07 16:00:25;;;;;;;6.25;1.35;;;;;;;10.03;63.19;97445.44;5080654;28;20048;-58
2022/04/07 16:02:53;;;;;;;2.58;1.50;;;;;;;10.12;62.94;97423.69;5082783;28;20067;-56
2022/04/07 16:05:21;;;;;;;4.10;1.73;;;;;;;10.10;62.55;97422.44;5079347;28;20059;-57
2022/04/07 16:07:49;;;;;;;7.68;2.80;;;;;;;9.95;60.32;97427.09;5094776;28;20048;-57
2022/04/07 16:10:19;;;;;;;6.30;1.65;;;;;;;9.90;61.18;97464.41;5094964;28;20127;-59
2022/04/07 16:12:46;;;;;;;5.50;1.95;;;;;;;9.64;64.16;97526.50;5091336;28;20048;-60
2022/04/07 16:15:13;;;;;;;5.85;1.98;;;;;;;9.44;67.26;97514.78;5092550;28;20052;-60
2022/04/07 16:17:41;;;;;;;6.72;2.03;;;;;;;9.29;67.76;97472.16;5090662;28;20040;-60
2022/04/07 16:20:11;;;;;;;4.75;1.92;;;;;;;8.88;68.65;97455.41;5094555;28;20052;-60
2022/04/07 16:22:39;;;;;;;5.88;1.67;;;;;;;8.63;68.63;97460.63;5096966;28;20056;-58
2022/04/07 16:25:07;;;;;;;4.47;1.70;;;;;;;8.58;70.62;97449.84;5084550;28;20048;-56
2022/04/07 16:27:35;;;;;;;3.45;1.55;;;;;;;8.44;70.78;97471.84;5077439;28;20052;-58
2022/04/07 16:30:02;;;;;;;4.13;1.50;;;;;;;8.27;69.80;97464.81;5074622;28;20057;-58
2022/04/07 16:32:29;;;;;;;3.25;1.75;;;;;;;8.23;70.14;97466.72;5074259;28;20061;-59
2022/04/07 16:34:56;;;;;;;4.03;1.67;;;;;;;8.20;69.02;97467.50;5074903;28;20048;-59
2022/04/07 16:37:24;;;;;;;4.55;1.70;;;;;;;8.16;68.67;97469.41;5074570;28;20060;-59
2022/04/07 16:39:52;;;;;;;4.65;1.55;;;;;;;8.22;69.35;97454.06;5081104;28;20078;-59
2022/04/07 16:42:20;;;;;;;6.43;1.75;;;;;;;8.33;68.80;97463.31;5094104;28;20048;-57
2022/04/07 16:44:47;;;;;;;6.53;2.00;;;;;;;8.56;68.38;97470.81;5094023;28;20052;-57
2022/04/07 16:47:15;;;;;;;8.10;2.08;;;;;;;8.53;68.13;97462.06;5094220;28;20051;-58
2022/04/07 16:49:42;;;;;;;3.85;1.60;;;;;;;8.63;67.01;97468.97;5089965;28;20060;-57
2022/04/07 16:52:10;;;;;;;7.53;2.17;;;;;;;8.76;63.53;97463.97;5073954;28;20052;-57
2022/04/07 16:54:37;;;;;;;5.45;1.60;;;;;;;8.88;64.29;97463.75;5075980;28;20052;-59
2022/04/07 16:57:06;;;;;;;7.15;1.90;;;;;;;8.96;62.23;97488.81;5093744;28;20044;-59
2022/04/07 16:59:33;;;;;;;3.30;1.40;;;;;;;8.93;63.06;97482.81;5093938;28;20055;-56
2022/04/07 17:02:01;;;;;;;5.68;1.55;;;;;;;8.97;61.99;97476.53;5092397;28;20071;-60
2022/04/07 17:04:30;;;;;;;4.07;1.70;;;;;;;9.13;61.77;97488.22;5092797;28;20063;-59
2022/04/07 17:06:57;;;;;;;3.90;1.40;;;;;;;9.14;58.72;97504.50;5093743;28;20052;-58
2022/04/07 17:09:25;;;;;;;5.72;1.63;;;;;;;9.06;59.65;97499.25;5093742;28;20059;-59
2022/04/07 17:11:57;;;;;;;4.05;1.52;;;;;;;8.94;58.71;97492.78;5074567;28;20059;-59
2022/04/07 17:14:26;;;;;;;5.60;1.58;;;;;;;9.04;58.18;97507.16;5073775;28;20052;-58
2022/04/07 17:16:54;;;;;;;5.03;1.75;;;;;;;9.02;59.34;97498.41;5082330;28;20044;-57
2022/04/07 17:19:21;;;;;;;7.05;1.83;;;;;;;8.95;58.59;97524.09;5081283;28;20074;-58
2022/04/07 17:21:48;;;;;;;5.90;1.67;;;;;;;9.02;59.89;97492.84;5081387;28;20059;-54
2022/04/07 17:24:17;;;;;;;4.93;1.60;;;;;;;9.10;57.97;97516.75;5084129;28;20048;-57
2022/04/07 17:26:44;;;;;;;5.90;1.83;;;;;;;9.13;57.87;97491.00;5080619;28;20412;-58
2022/04/07 17:29:12;;;;;;;4.78;1.30;;;;;;;9.11;58.10;97533.03;5078672;28;20048;-57
2022/04/07 17:31:41;;;;;;;5.65;1.60;;;;;;;9.20;56.84;97504.97;5073330;28;20055;-56
2022/04/07 17:34:08;;;;;;;5.53;1.40;;;;;;;9.19;54.84;97522.81;5072949;28;20048;-58
2022/04/07 17:36:36;;;;;;;2.78;1.02;;;;;;;9.22;56.50;97518.47;5073688;28;20106;-57
2022/04/07 17:39:03;;;;;;;5.15;1.77;;;;;;;9.22;56.22;97532.34;5072636;28;20084;-58
2022/04/07 17:41:31;;;;;;;5.85;1.33;;;;;;;9.17;56.11;97533.50;5084668;28;20511;-58
2022/04/07 17:43:59;;;;;;;4.35;1.40;;;;;;;8.97;57.21;97521.75;5091941;28;20048;-59